Map

Track Data

SID SEASON NUMBER BASIN SUBBASIN NAME ISO_TIME NATURE LAT LON WMO_WIND WMO_PRES WMO_AGENCY TRACK_TYPE DIST2LAND LANDFALL IFLAG USA_AGENCY USA_ATCF_ID USA_LAT USA_LON USA_RECORD USA_STATUS USA_WIND USA_PRES USA_SSHS USA_R34_NE USA_R34_SE USA_R34_SW USA_R34_NW USA_R50_NE USA_R50_SE USA_R50_SW USA_R50_NW USA_R64_NE USA_R64_SE USA_R64_SW USA_R64_NW USA_POCI USA_ROCI USA_RMW USA_EYE TOKYO_LAT TOKYO_LON TOKYO_GRADE TOKYO_WIND TOKYO_PRES TOKYO_R50_DIR TOKYO_R50_LONG TOKYO_R50_SHORT TOKYO_R30_DIR TOKYO_R30_LONG TOKYO_R30_SHORT TOKYO_LAND CMA_LAT CMA_LON CMA_CAT CMA_WIND CMA_PRES HKO_LAT HKO_LON HKO_CAT HKO_WIND HKO_PRES NEWDELHI_LAT NEWDELHI_LON NEWDELHI_GRADE NEWDELHI_WIND NEWDELHI_PRES NEWDELHI_CI NEWDELHI_DP NEWDELHI_POCI REUNION_LAT REUNION_LON REUNION_TYPE REUNION_WIND REUNION_PRES REUNION_TNUM REUNION_CI REUNION_RMW REUNION_R34_NE REUNION_R34_SE REUNION_R34_SW REUNION_R34_NW REUNION_R50_NE REUNION_R50_SE REUNION_R50_SW REUNION_R50_NW REUNION_R64_NE REUNION_R64_SE REUNION_R64_SW REUNION_R64_NW BOM_LAT BOM_LON BOM_TYPE BOM_WIND BOM_PRES BOM_TNUM BOM_CI BOM_RMW BOM_R34_NE BOM_R34_SE BOM_R34_SW BOM_R34_NW BOM_R50_NE BOM_R50_SE BOM_R50_SW BOM_R50_NW BOM_R64_NE BOM_R64_SE BOM_R64_SW BOM_R64_NW BOM_ROCI BOM_POCI BOM_EYE BOM_POS_METHOD BOM_PRES_METHOD NADI_LAT NADI_LON NADI_CAT NADI_WIND NADI_PRES WELLINGTON_LAT WELLINGTON_LON WELLINGTON_WIND WELLINGTON_PRES DS824_LAT DS824_LON DS824_STAGE DS824_WIND DS824_PRES TD9636_LAT TD9636_LON TD9636_STAGE TD9636_WIND TD9636_PRES TD9635_LAT TD9635_LON TD9635_WIND TD9635_PRES TD9635_ROCI NEUMANN_LAT NEUMANN_LON NEUMANN_CLASS NEUMANN_WIND NEUMANN_PRES MLC_LAT MLC_LON MLC_CLASS MLC_WIND MLC_PRES USA_GUST BOM_GUST BOM_GUST_PER REUNION_GUST REUNION_GUST_PER USA_SEAHGT USA_SEARAD_NE USA_SEARAD_SE USA_SEARAD_SW USA_SEARAD_NW STORM_SPEED STORM_DIR
1971050S13093 1971 26 SI WA LISE:YVONNE 1971-02-19 00:00:00 TS -13.0000 93.0000 1002 bom main 1423 1418 ______O__O____ -1 -13.0000 93.0000 1002 -13.0000 93.0000 TC 25 1002 2 105
1971050S13093 1971 26 SI WA LISE:YVONNE 1971-02-19 03:00:00 TS -13.0250 93.1000 1002 bom main 1418 1418 ______O__P____ -1 -13.0000 93.1000 1002 -13.0500 93.1000 TC 25 1002 2 117
1971050S13093 1971 26 SI WA LISE:YVONNE 1971-02-19 06:00:00 TS -13.1000 93.2000 1002 bom main 1423 1418 ______O__O____ -1 -13.1000 93.2000 1002 -13.1000 93.2000 TC 25 1002 2 117
1971050S13093 1971 26 SI WA LISE:YVONNE 1971-02-19 09:00:00 TS -13.1250 93.3000 1002 bom main 1418 1418 ______O__P____ -1 -13.1000 93.3000 1002 -13.1500 93.3000 TC 25 1002 2 117
1971050S13093 1971 26 SI WA LISE:YVONNE 1971-02-19 12:00:00 TS -13.2000 93.4000 1002 bom main 1420 1405 ______O__O____ -1 -13.2000 93.4000 1002 -13.2000 93.4000 TC 25 1002 3 110
1971050S13093 1971 26 SI WA LISE:YVONNE 1971-02-19 15:00:00 TS -13.2211 93.5674 1002 bom main 1405 1405 ______O__P____ -1 -13.2000 93.5000 1002 -13.2421 93.6349 TC 25 1002 2 117
1971050S13093 1971 26 SI WA LISE:YVONNE 1971-02-19 18:00:00 TS -13.3000 93.6000 1002 bom main 1414 1414 ______O__O____ -1 -13.3000 93.6000 1002 -13.3000 93.6000 TC 25 1002 3 234
1971050S13093 1971 26 SI WA LISE:YVONNE 1971-02-19 21:00:00 TS -13.4006 93.3151 1002 bom main 1444 1444 ______O__P____ -1 -13.4000 93.8000 1002 -13.4012 92.8303 TC 25 1002 16 263
1971050S13093 1971 26 SI WA LISE:YVONNE 1971-02-20 00:00:00 TS -13.5000 92.0000 1002 bom main 1524 1524 ______O__O____ -1 -13.5000 92.0000 1002 -13.5000 92.0000 TC 25 1002 14 265
1971050S13093 1971 26 SI WA LISE:YVONNE 1971-02-20 03:00:00 TS -13.5285 91.8475 1002 bom main 1535 1535 ______O__P____ -1 -13.5000 91.9000 1002 -13.5571 91.7949 TC 25 1002 2 243
1971050S13093 1971 26 SI WA LISE:YVONNE 1971-02-20 06:00:00 TS -13.6000 91.8000 1002 bom main 1545 1545 ______O__O____ -1 -13.6000 91.8000 1002 -13.6000 91.8000 TC 25 1002 2 236
1971050S13093 1971 26 SI WA LISE:YVONNE 1971-02-20 09:00:00 TS -13.6250 91.7000 1002 bom main 1550 1550 ______O__P____ -1 -13.6000 91.7000 1002 -13.6500 91.7000 TC 25 1002 2 243
1971050S13093 1971 26 SI WA LISE:YVONNE 1971-02-20 12:00:00 TS -13.7000 91.6000 1002 bom main 1566 1566 ______O__O____ -1 -13.7000 91.6000 1002 -13.7000 91.6000 TC 25 1002 2 243
1971050S13093 1971 26 SI WA LISE:YVONNE 1971-02-20 15:00:00 TS -13.7212 91.5075 1002 bom main 1571 1571 ______O__P____ -1 -13.7000 91.5000 1002 -13.7425 91.5150 TC 25 1002 2 243
1971050S13093 1971 26 SI WA LISE:YVONNE 1971-02-20 18:00:00 TS -13.8000 91.4000 1002 bom main 1587 1587 ______O__O____ -1 -13.8000 91.4000 1002 -13.8000 91.4000 TC 25 1002 3 240
1971050S13093 1971 26 SI WA LISE:YVONNE 1971-02-20 21:00:00 TS -13.8774 91.2261 1002 bom main 1608 1608 ______O__P____ -1 -13.9000 91.2000 1002 -13.8549 91.2523 TC 25 1002 4 243
1971050S13093 1971 26 SI WA LISE:YVONNE 1971-02-21 00:00:00 TS -14.0000 91.0000 1002 bom main 1629 1629 ______O__O____ -1 -14.0000 91.0000 1002 -14.0000 91.0000 TC 25 1002 7 234
1971050S13093 1971 26 SI WA LISE:YVONNE 1971-02-21 03:00:00 TS -14.2724 90.6696 1000 bom main 1674 1674 ______O__P____ -1 -14.3000 90.7000 1000 -14.2447 90.6392 TC 30 1000 18 226
1971050S13093 1971 26 SI MM LISE:YVONNE 1971-02-21 06:00:00 TS -15.2231 89.7000 998 bom main 1818 1818 O____OO__OO_O_ jtwc_sh SH221971 -16.1000 89.1000 -1 -16.0000 89.0000 3 9.90000 -14.7000 90.1000 998 -14.7000 90.1000 TC 35 998 -16.1000 89.1000 2 -16.0000 89.0000 TC 35 24 225
1971050S13093 1971 26 SI MM LISE:YVONNE 1971-02-21 09:00:00 TS -15.9449 88.9294 996 bom main 1932 1932 P____PO__PP_P_ SH221971 -16.2478 88.5426 -1 -16.3926 88.7428 3 -15.5000 89.3000 996 -15.4780 89.3238 TC 37 996 -16.2672 88.5464 2 -16.3926 88.7428 TC 35 18 228
1971050S13093 1971 26 SI MM LISE:YVONNE 1971-02-21 12:00:00 TS -16.4470 88.3048 994 bom main 2014 2014 O____OO__OP_O_ jtwc_sh SH221971 -16.4000 88.0000 -1 -16.7000 88.5000 99 9.90000 -16.3000 88.5000 994 -16.3000 88.5000 TC 40 994 -16.4269 88.0038 2 -16.7000 88.5000 TC 35 13 233
1971050S13093 1971 26 SI MM LISE:YVONNE 1971-02-21 15:00:00 TS -16.7428 87.8251 992 bom main 2073 2073 P____PO__PP_P_ SH221971 -16.5574 87.4850 -1 -16.8724 88.2722 99 -16.9000 87.9000 992 -16.8669 87.8767 TC 42 992 -16.5732 87.4843 2 -16.8724 88.2722 TC 35 10 240
1971050S13093 1971 26 SI MM LISE:YVONNE 1971-02-21 18:00:00 TS -16.9571 87.3714 990 bom main 2126 2126 O____OO__OO_O_ jtwc_sh SH221971 -16.7000 87.0000 -1 -17.0000 88.0000 99 9.90000 -17.3000 87.3000 990 -17.3000 87.3000 TC 45 990 -16.7000 87.0000 2 -17.0000 88.0000 TC 35 10 245
1971050S13093 1971 26 SI MM LISE:YVONNE 1971-02-21 21:00:00 TS -17.1714 86.8763 987 bom main 2176 2176 P____PO__PP_P_ SH221971 -16.8073 86.5499 -1 -17.2001 87.6151 99 -17.7000 86.6000 987 -17.6799 86.6497 TC 50 987 -16.8049 86.5545 2 -17.2001 87.6151 TC 37 10 247
1971050S13093 1971 26 SI MM LISE:YVONNE 1971-02-22 00:00:00 TS -17.3569 86.3880 985 bom main 2227 2227 O____OO__OP_O_ jtwc_sh SH221971 -16.9000 86.1000 -1 -17.4000 87.2000 99 9.90000 -18.0000 86.0000 985 -18.0000 86.0000 TC 55 985 -16.8980 86.1163 2 -17.4000 87.2000 TC 40 10 248
1971050S13093 1971 26 SI MM LISE:YVONNE 1971-02-22 03:00:00 TS -17.5326 85.9181 983 bom main 2269 2269 P____PO__PP_P_ SH221971 -16.9921 85.6448 -1 -17.5649 86.8499 99 -18.3000 85.4000 983 -18.3222 85.3923 TC 57 982 -16.9921 85.6450 2 -17.5649 86.8499 TC 42 10 250
1971050S13093 1971 26 SI MM LISE:YVONNE 1971-02-22 06:00:00 TS -17.7000 85.4143 980 bom main 2321 2321 O____OO__OO_O_ jtwc_sh SH221971 -17.1000 85.1000 -1 -17.7000 86.5000 3 9.90000 -18.6000 84.8000 980 -18.6000 84.8000 TC 60 980 -17.1000 85.1000 2 -17.7000 86.5000 TC 45 11 252
1971050S13093 1971 26 SI MM LISE:YVONNE 1971-02-22 09:00:00 TS -17.8539 84.8494 979 bom main 2380 2380 P____PO__PP_P_ SH221971 -17.2426 84.3875 -1 -17.8144 86.1749 3 -18.8000 84.2000 979 -18.8148 84.1997 TC 60 979 -17.2484 84.4214 2 -17.8144 86.1749 TC 47 12 255
1971050S13093 1971 26 SI MM LISE:YVONNE 1971-02-22 12:00:00 TS -18.0012 84.2097 978 bom main 2431 2431 O____OO__OP_O_ jtwc_sh SH221971 -17.4000 83.6000 -1 -17.9000 85.7000 99 9.90000 -19.0000 83.6000 978 -19.0000 83.6000 TC 60 978 -17.4083 83.6681 2 -17.9000 85.7000 TC 50 13 257
1971050S13093 1971 26 SI MM LISE:YVONNE 1971-02-22 15:00:00 TS -18.1443 83.4740 977 bom main 2490 2490 P____PO__PP_P_ SH221971 -17.5573 82.8425 -1 -17.9657 84.8875 99 -19.2000 83.0000 977 -19.2000 82.9774 TC 62 977 -17.5639 82.8807 2 -17.9657 84.8875 TC 50 14 259
1971050S13093 1971 26 SI MM LISE:YVONNE 1971-02-22 18:00:00 TS -18.2714 82.7286 976 bom main 2565 2555 O____OO__OO_O_ jtwc_sh SH221971 -17.7000 82.1000 -1 -18.0000 84.0000 99 9.90000 -19.4000 82.4000 976 -19.4000 82.4000 TC 65 976 -17.7000 82.1000 2 -18.0000 84.0000 TC 50 13 260
1971050S13093 1971 26 SI MM LISE:YVONNE 1971-02-22 21:00:00 TS -18.3828 82.0870 975 bom main 2555 2491 P____PO__PP_P_ SH221971 -17.8147 81.3924 -1 -18.0066 83.3499 99 -19.6000 81.8000 975 -19.6296 81.9351 TC 65 975 -17.8076 81.3894 2 -18.0066 83.3499 TC 50 12 260
1971050S13093 1971 26 SI MM LISE:YVONNE 1971-02-23 00:00:00 TS -18.4705 81.4989 975 bom main 2491 2429 O____OO__OP_O_ jtwc_sh SH221971 -17.9000 80.7000 -1 -18.0000 82.7000 99 9.90000 -19.8000 81.5000 975 -19.8000 81.5000 TC 65 975 -17.8935 80.6922 2 -18.0000 82.7000 TC 50 12 264
1971050S13093 1971 26 SI MM LISE:YVONNE 1971-02-23 03:00:00 TS -18.5067 80.8381 975 bom main 2418 2356 P____PO__PP_P_ SH221971 -17.9647 80.0000 -1 -18.0077 81.8651 99 -19.8000 81.1000 975 -19.8446 81.0374 TC 65 975 -17.9577 79.9990 2 -18.0077 81.8651 TC 52 13 268
1971050S13093 1971 26 SI MM LISE:YVONNE 1971-02-23 06:00:00 TS -18.5143 80.1286 975 bom main 2345 2283 O____OO__OO_O_ jtwc_sh SH221971 -18.0000 79.3000 -1 -18.0000 81.0000 3 9.90000 -19.8000 80.5000 975 -19.8000 80.5000 TC 65 975 -18.0000 79.3000 2 -18.0000 81.0000 TC 55 13 271
1971050S13093 1971 26 SI MM LISE:YVONNE 1971-02-23 09:00:00 TS -18.4786 79.4235 main 2272 2201 P____PO__PP_P_ SH221971 -18.0072 78.6074 -1 -17.9494 80.2499 3 -19.7000 79.9000 976 -19.7149 79.8449 TC 65 975 -18.0225 78.5048 2 -17.9494 80.2499 TC 57 14 273
1971050S13093 1971 26 SI MM LISE:YVONNE 1971-02-23 12:00:00 TS -18.4320 78.6735 reunion main 2201 2118 O____OO__OP_O_ jtwc_sh SH221971 -18.0000 77.9000 -1 -17.9000 79.5000 99 9.90000 -19.6000 79.1000 976 -19.6000 79.1000 TC 65 976 -18.0240 77.7147 2 -17.9000 79.5000 TC 60 15 273
1971050S13093 1971 26 SI MM LISE:YVONNE 1971-02-23 15:00:00 TS -18.4021 77.8632 main 2118 2036 P____PO__PP_P_ SH221971 -18.0005 77.0825 -1 -17.8924 78.6576 99 -19.5000 78.3000 977 -19.5154 78.2702 TC 62 977 -18.0133 76.9923 2 -17.8924 78.6576 TC 60 15 275
1971050S13093 1971 26 SI MM LISE:YVONNE 1971-02-23 18:00:00 TS -18.2923 77.0846 reunion main 2036 1976 O____OO__OO_O_ jtwc_sh SH221971 -18.0000 76.4000 -1 -17.9000 77.8000 99 9.90000 -19.4000 77.5000 978 -19.4000 77.5000 TC 60 978 -18.0000 76.4000 2 -17.9000 77.8000 TC 60 13 280
1971050S13093 1971 26 SI MM LISE:YVONNE 1971-02-23 21:00:00 TS -18.1682 76.5194 main 1976 1936 P____PO__PP_P_ SH221971 -17.9995 76.0750 -1 -17.8995 77.0000 99 -19.2000 76.8000 979 -19.2198 76.9348 TC 60 979 -18.0012 76.0988 2 -17.8995 77.0000 TC 60 10 284
1971050S13093 1971 26 SI MM LISE:YVONNE 1971-02-24 00:00:00 TS -18.0552 76.0664 reunion main 1936 1886 O____OO__OP_O_ jtwc_sh SH221971 -18.0000 75.9000 -1 -17.9000 76.2000 99 9.90000 -19.0000 76.5000 980 -19.0000 76.5000 TC 60 980 -18.0035 75.9151 2 -17.9000 76.2000 TC 60 9 283
1971050S13093 1971 26 SI MM LISE:YVONNE 1971-02-24 03:00:00 TS -17.9637 75.5658 main 1886 1834 P____P____P_P_ SH221971 -17.9995 75.7250 -1 -17.9076 75.3276 99 TC -18.0042 75.7238 2 -17.9076 75.3276 TC 62 10 276
1971050S13093 1971 26 SI MM LISE:YVONNE 1971-02-24 06:00:00 TS -17.9600 75.0400 reunion main 1824 1763 O____O____O_O_ jtwc_sh SH221971 -18.0000 75.4000 -1 -17.9000 74.5000 4 9.90000 -18.0000 75.4000 2 -17.9000 74.5000 TC 65 11 271
1971050S13093 1971 26 SI MM LISE:YVONNE 1971-02-24 09:00:00 TS -17.9371 74.3760 main 1763 1691 P____P____P_P_ SH221971 -18.0078 74.7326 -1 -17.8495 73.8199 4 -17.9712 74.7753 2 -17.8495 73.8199 TC 65 13 272
1971050S13093 1971 26 SI MM LISE:YVONNE 1971-02-24 12:00:00 TS -17.9073 73.6413 reunion main 1681 1608 O____O____P_O_ jtwc_sh SH221971 -18.0000 73.9000 -1 -17.8000 73.2000 99 9.90000 -17.9366 74.0064 2 -17.8000 73.2000 TC 65 14 272
1971050S13093 1971 26 SI MM LISE:YVONNE 1971-02-24 15:00:00 TS -17.8756 72.8858 main 1608 1536 P____P____P_P_ SH221971 -17.9424 73.0997 -1 -17.7924 72.5351 99 -17.9085 73.1595 2 -17.7924 72.5351 TC 67 14 272
1971050S13093 1971 26 SI MM LISE:YVONNE 1971-02-24 18:00:00 TS -17.8600 72.1400 reunion main 1525 1463 O____O____O_O_ jtwc_sh SH221971 -17.9000 72.3000 -1 -17.8000 71.9000 99 9.90000 -17.9000 72.3000 2 -17.8000 71.9000 TC 70 14 270
1971050S13093 1971 26 SI MM LISE:YVONNE 1971-02-24 21:00:00 TS -17.8747 71.4663 main 1463 1391 P____P____P_P_ SH221971 -17.9345 71.5501 -1 -17.7917 71.3874 99 -17.9210 71.4565 2 -17.7917 71.3874 TC 72 13 268
1971050S13093 1971 26 SI MM LISE:YVONNE 1971-02-25 00:00:00 TS -17.9127 70.7646 reunion main 1391 1306 O____O____P_O_ jtwc_sh SH221971 -18.0000 70.8000 -1 -17.8000 70.8000 99 9.90000 -17.9637 70.6232 2 -17.8000 70.8000 TC 75 15 267
1971050S13093 1971 26 SI MM LISE:YVONNE 1971-02-25 03:00:00 TS -17.9594 69.9067 main 1296 1224 P____P____P_P_ SH221971 -18.0429 69.9475 -1 -17.8434 69.8926 99 -18.0244 69.8532 2 -17.8434 69.8926 TC 77 16 266
1971050S13093 1971 26 SI MM LISE:YVONNE 1971-02-25 06:00:00 TS -18.0200 69.1200 reunion main 1214 1170 O____O____O_O_ jtwc_sh SH221971 -18.1000 69.2000 -1 -17.9000 69.0000 4 9.90000 -18.1000 69.2000 4 -17.9000 69.0000 TC 80 12 265
1971050S13093 1971 26 SI MM LISE:YVONNE 1971-02-25 09:00:00 TS -18.0671 68.6290 main 1160 1126 P____P____P_P_ SH221971 -18.1920 68.7250 -1 -17.8968 68.4395 4 -18.1578 68.8159 4 -17.8968 68.4395 TC 80 8 260
1971050S13093 1971 26 SI MM LISE:YVONNE 1971-02-25 12:00:00 TS -18.1670 68.2671 reunion main 1126 1080 O____O____P_O_ jtwc_sh SH221971 -18.3000 68.4000 -1 -18.0000 68.0000 99 9.90000 -18.2351 68.5354 4 -18.0000 68.0000 TC 80 7 245
1971050S13093 1971 26 SI MM LISE:YVONNE 1971-02-25 15:00:00 TS -18.3766 67.9205 main 1080 1034 P____P____P_P_ SH221971 -18.3841 68.1820 -1 -18.3849 67.5005 99 -18.3450 68.2372 4 -18.3849 67.5005 TC 80 9 239
1971050S13093 1971 26 SI MM LISE:YVONNE 1971-02-25 18:00:00 TS -18.6200 67.4800 reunion main 1034 957 O____O____O_O_ jtwc_sh SH221971 -18.5000 67.8000 -1 -18.8000 67.0000 99 9.90000 -18.5000 67.8000 4 -18.8000 67.0000 TC 80 12 249
1971050S13093 1971 26 SI MM LISE:YVONNE 1971-02-25 21:00:00 TS -18.7902 66.7668 main 957 870 P____P____P_P_ SH221971 -18.6709 66.9325 -1 -18.9574 66.4993 99 -18.6946 66.9703 4 -18.9574 66.4993 TC 77 15 256
1971050S13093 1971 26 SI MM LISE:YVONNE 1971-02-26 00:00:00 TS -18.9862 65.9604 reunion main 870 782 O____O____P_O_ jtwc_sh SH221971 -18.9000 65.9000 -1 -19.1000 66.0000 99 9.90000 -18.9309 66.0021 4 -19.1000 66.0000 TC 75 16 252
1971050S13093 1971 26 SI MM LISE:YVONNE 1971-02-26 03:00:00 TS -19.2913 65.1818 main 782 704 P____P____P_P_ SH221971 -19.1777 64.9603 -1 -19.4500 65.4779 99 -19.2010 65.0326 4 -19.4500 65.4779 TC 75 15 245
1971050S13093 1971 26 SI MM LISE:YVONNE 1971-02-26 06:00:00 TS -19.6200 64.5200 reunion main 704 659 O____O____O_O_ jtwc_sh SH221971 -19.5000 64.2000 -1 -19.8000 65.0000 4 9.90000 -19.5000 64.2000 4 -19.8000 65.0000 TC 75 12 240
1971050S13093 1971 26 SI MM LISE:YVONNE 1971-02-26 09:00:00 TS -19.8841 64.1063 main 659 626 P____P____P_P_ SH221971 -19.8418 63.7745 -1 -19.9572 64.6419 4 -19.8224 63.6987 4 -19.9572 64.6419 TC 75 9 232
1971050S13093 1971 26 SI MM LISE:YVONNE 1971-02-26 12:00:00 TS -20.1548 63.7896 reunion main 625 583 O____O____P_O_ jtwc_sh SH221971 -20.2000 63.5000 -1 -20.1000 64.3000 99 9.90000 -20.1740 63.3482 4 -20.1000 64.3000 TC 75 9 227
1971050S13093 1971 26 SI MM LISE:YVONNE 1971-02-26 15:00:00 TS -20.4847 63.4178 main 583 553 P____P____P_P_ SH221971 -20.5498 63.1647 -1 -20.3926 63.8428 99 -20.5387 63.0737 4 -20.3926 63.8428 TC 72 10 227
1971050S13093 1971 26 SI MM LISE:YVONNE 1971-02-26 18:00:00 TS -20.8200 63.0400 reunion main 544 515 O____O____O_O_ jtwc_sh SH221971 -20.9000 62.8000 -1 -20.7000 63.4000 99 9.90000 -20.9000 62.8000 4 -20.7000 63.4000 TC 70 10 229
1971050S13093 1971 26 SI MM LISE:YVONNE 1971-02-26 21:00:00 TS -21.1081 62.6492 main 507 480 P____P____P_P_ SH221971 -21.2576 62.3501 -1 -20.8922 63.0920 99 -21.2408 62.3621 4 -20.8922 63.0920 TC 70 9 232
1971050S13093 1971 26 SI MM LISE:YVONNE 1971-02-27 00:00:00 TS -21.3947 62.2637 reunion main 483 449 O____O____P_O_ jtwc_sh SH221971 -21.6000 61.9000 -1 -21.1000 62.8000 99 9.90000 -21.5733 61.9184 4 -21.1000 62.8000 TC 70 10 231
1971050S13093 1971 26 SI MM LISE:YVONNE 1971-02-27 03:00:00 TS -21.7159 61.8532 main 453 427 P____P____P_P_ SH221971 -21.9075 61.4974 -1 -21.4352 62.3779 99 -21.8940 61.5154 4 -21.4352 62.3779 TC 70 9 227
1971050S13093 1971 26 SI MM LISE:YVONNE 1971-02-27 06:00:00 TS -22.0400 61.5200 reunion main 427 422 O____O____O_O_ jtwc_sh SH221971 -22.2000 61.2000 -1 -21.8000 62.0000 4 9.90000 -22.2000 61.2000 4 -21.8000 62.0000 TC 70 8 216
1971050S13093 1971 26 SI MM LISE:YVONNE 1971-02-27 09:00:00 TS -22.3398 61.3574 main 432 428 P____P____P_P_ SH221971 -22.5074 61.0548 -1 -22.0998 61.8196 4 -22.4846 61.0384 4 -22.0998 61.8196 TC 67 6 201
1971050S13093 1971 26 SI MM LISE:YVONNE 1971-02-27 12:00:00 TS -22.6313 61.2732 reunion main 440 437 O____O____P_O_ jtwc_sh SH221971 -22.8000 61.0000 -1 -22.4000 61.7000 99 9.90000 -22.7567 60.9659 4 -22.4000 61.7000 TC 65 6 197
1971050S13093 1971 26 SI MM LISE:YVONNE 1971-02-27 15:00:00 TS -22.9221 61.1641 main 450 448 P____P____P_P_ SH221971 -23.0500 60.9573 -1 -22.7426 61.4852 99 -23.0255 60.9355 4 -22.7426 61.4852 TC 65 6 198
1971050S13093 1971 26 SI MM LISE:YVONNE 1971-02-27 18:00:00 TS -23.2200 61.0600 reunion main 462 462 O____O____O_O_ jtwc_sh SH221971 -23.3000 60.9000 -1 -23.1000 61.3000 99 9.90000 -23.3000 60.9000 4 -23.1000 61.3000 TC 65 6 198
1971050S13093 1971 26 SI MM LISE:YVONNE 1971-02-27 21:00:00 TS -23.5370 60.9486 main 470 470 P____P____P_P_ SH221971 -23.5925 60.7576 -1 -23.4575 61.2273 99 -23.5848 60.7734 4 -23.4575 61.2273 TC 62 7 197
1971050S13093 1971 26 SI MM LISE:YVONNE 1971-02-28 00:00:00 TS -23.8555 60.8471 reunion main 496 496 O____O____P_O_ jtwc_sh SH221971 -23.9000 60.6000 -1 -23.8000 61.2000 99 9.90000 -23.8776 60.6354 4 -23.8000 61.2000 TC 60 6 196
1971050S13093 1971 26 SI MM LISE:YVONNE 1971-02-28 03:00:00 TS -24.1533 60.7549 main 522 515 P____P____P_P_ SH221971 -24.1925 60.4849 -1 -24.1000 61.1500 99 -24.1817 60.5047 4 -24.1000 61.1500 TC 60 6 194
1971050S13093 1971 26 SI MM LISE:YVONNE 1971-02-28 06:00:00 MX -24.4600 60.6800 reunion main 542 542 O____O____O_O_ jtwc_sh SH221971 -24.5000 60.4000 -1 -24.4000 61.1000 3 9.90000 -24.5000 60.4000 4 -24.4000 61.1000 EX 60 7 190
1971050S13093 1971 26 SI MM LISE:YVONNE 1971-02-28 09:00:00 MX -24.7979 60.6270 main 565 565 P____P____P_P_ SH221971 -24.8425 60.3350 -1 -24.7350 61.0648 3 -24.8346 60.3353 4 -24.7350 61.0648 EX 60 7 183
1971050S13093 1971 26 SI MM LISE:YVONNE 1971-02-28 12:00:00 MX -25.1498 60.6302 reunion main 593 593 O____O____P_O_ jtwc_sh SH221971 -25.2000 60.3000 -1 -25.1000 61.0000 99 9.90000 -25.1824 60.3046 4 -25.1000 61.0000 EX 60 7 182
1971050S13093 1971 26 SI MM LISE:YVONNE 1971-02-28 15:00:00 MX -25.5334 60.6246 main 632 632 P____P____P_P_ SH221971 -25.5525 60.2925 -1 -25.5225 60.8726 99 -25.5390 60.2966 4 -25.5225 60.8726 EX 57 8 182
1971050S13093 1971 26 SI MM LISE:YVONNE 1971-02-28 18:00:00 MX -25.9000 60.5909 reunion main 672 672 O____O____O_O_ jtwc_sh SH221971 -25.9000 60.3000 -1 -25.9000 60.7000 99 9.90000 -25.9000 60.3000 6 -25.9000 60.7000 EX 55 6 191
1971050S13093 1971 26 SI MM LISE:YVONNE 1971-02-28 21:00:00 ET -26.1075 60.4998 main 688 688 _____P______P_ SH221971 -1 -26.1075 60.4998 99 6 -26.1075 60.4998 EX 52 5 213
1971050S13093 1971 26 SI MM LISE:YVONNE 1971-03-01 00:00:00 ET -26.3000 60.3000 reunion main 700 700 _____O______O_ -1 -26.3000 60.3000 99 9.90000 6 -26.3000 60.3000 EX 50 6 211
1971050S13093 1971 26 SI MM LISE:YVONNE 1971-03-01 03:00:00 ET -26.6124 60.1572 main 727 724 _____P______P_ -1 -26.6124 60.1572 99 6 -26.6124 60.1572 EX 50 8 201
1971050S13093 1971 26 SI MM LISE:YVONNE 1971-03-01 06:00:00 MX -27.0000 60.0000 reunion main 763 763 _____O______O_ -1 -27.0000 60.0000 3 9.90000 -27.0000 60.0000 EX 50 9 202
1971050S13093 1971 26 SI MM LISE:YVONNE 1971-03-01 09:00:00 MX -27.4349 59.7799 main 792 792 _____P______P_ -1 -27.4349 59.7799 3 -27.4349 59.7799 EX 50 10 206
1971050S13093 1971 26 SI MM LISE:YVONNE 1971-03-01 12:00:00 ET -27.9000 59.5000 reunion main 826 826 _____O______O_ -1 -27.9000 59.5000 99 9.90000 -27.9000 59.5000 EX 50 11 211
1971050S13093 1971 26 SI MM LISE:YVONNE 1971-03-01 15:00:00 ET -28.3425 59.1722 main 851 851 _____P______P_ -1 -28.3425 59.1722 99 -28.3425 59.1722 EX 47 11 214
1971050S13093 1971 26 SI MM LISE:YVONNE 1971-03-01 18:00:00 ET -28.8000 58.8000 reunion main 887 887 _____O______O_ -1 -28.8000 58.8000 99 9.90000 -28.8000 58.8000 EX 45 12 214
1971050S13093 1971 26 SI MM LISE:YVONNE 1971-03-01 21:00:00 ET -29.3073 58.4223 main 926 926 _____P______P_ -1 -29.3073 58.4223 99 -29.3073 58.4223 EX 45 12 215
1971050S13093 1971 26 SI MM LISE:YVONNE 1971-03-02 00:00:00 ET -29.8000 58.0000 reunion main 968 968 _____O______O_ -1 -29.8000 58.0000 99 9.90000 -29.8000 58.0000 EX 45 12 220
1971050S13093 1971 26 SI MM LISE:YVONNE 1971-03-02 03:00:00 ET -30.2450 57.5076 main 1001 1001 _____P______P_ -1 -30.2450 57.5076 99 -30.2450 57.5076 EX 42 12 227
1971050S13093 1971 26 SI MM LISE:YVONNE 1971-03-02 06:00:00 ET -30.6000 57.0000 reunion main 1037 1035 _____O______O_ -1 -30.6000 57.0000 5 9.90000 -30.6000 57.0000 EX 40 10 235
1971050S13093 1971 26 SI MM LISE:YVONNE 1971-03-02 09:00:00 ET -30.8373 56.5345 main 1053 1053 _____P______P_ -1 -30.8373 56.5345 5 -30.8373 56.5345 EX 40 9 243
1971050S13093 1971 26 SI MM LISE:YVONNE 1971-03-02 12:00:00 ET -31.0000 56.1000 reunion main 1073 1073 _____O______O_ -1 -31.0000 56.1000 99 9.90000 -31.0000 56.1000 EX 40 8 247
1971050S13093 1971 26 SI MM LISE:YVONNE 1971-03-02 15:00:00 ET -31.1422 55.7069 main 1083 1066 _____P______P_ -1 -31.1422 55.7069 99 -31.1422 55.7069 EX 40 7 246
1971050S13093 1971 26 SI MM LISE:YVONNE 1971-03-02 18:00:00 ET -31.3000 55.3000 reunion main 1066 1044 _____O______O_ -1 -31.3000 55.3000 99 9.90000 -31.3000 55.3000 EX 40 9 242
1971050S13093 1971 26 SI MM LISE:YVONNE 1971-03-02 21:00:00 ET -31.5576 54.8005 main 1051 1031 _____P______P_ -1 -31.5576 54.8005 99 -31.5576 54.8005 EX 37 10 240
1971050S13093 1971 26 SI MM LISE:YVONNE 1971-03-03 00:00:00 ET -31.8000 54.3000 reunion main 1032 1014 _____O______O_ -1 -31.8000 54.3000 99 9.90000 -31.8000 54.3000 EX 35 9 244
1971050S13093 1971 26 SI MM LISE:YVONNE 1971-03-03 03:00:00 ET -31.9350 53.8747 main 1014 997 _____P______P_ -1 -31.9350 53.8747 99 -31.9350 53.8747 EX 32 7 254
1971050S13093 1971 26 SI MM LISE:YVONNE 1971-03-03 06:00:00 ET -32.0000 53.5000 reunion main 997 _____O______O_ -1 -32.0000 53.5000 5 9.90000 -32.0000 53.5000 EX 30 6 258

About IBTrACS Database

This database is a web-friendly format of International Best Track Archive for Climate Stewardship (IBTrACS), a global best track data archive curated by NOAA dating back to 1842.

Updated: 2021-10-08